• Join FlightAware (Why Join?)
  • Login
  • US Flag 
11:06AM EDT


 

Airport Tracker/Info


-or-


 

Live Flight TrackerFlight Track Log ✈ DAL1781 ✈ 17-Oct-2013 ✈ KMSP - KATL

Flight Track Log - Related Links

Times and Time Zones

All times are in EDT time to prevent confusion due to time zone crossing. See the DAL1781 flight status page for this flight to view local times or setup timezone preferences in your user account.

Time Position Orientation Groundspeed Altitude Reporting Facility
EDT Latitude Longitude Course Direction KTS MPH feet Rate Location/Type
04:32PM 44.8770 -93.2030 325° Northwest 115 132  Level FlightAware
04:32PM 44.8850 -93.2210 302° West 171 197 1,200 3,000 Climbing FlightAware
04:32PM 44.8910 -93.2380 296° West 173 199 1,900 2,520 Climbing FlightAware
04:33PM 44.8920 -93.2430 286° West 176 203 2,100 3,000 Climbing FlightAware
04:33PM 44.8920 -93.2470 270° West 178 205 2,300 1,500 Climbing FlightAware
04:33PM 44.8900 -93.2780 265° West 206 237 2,800 1,200 Climbing FlightAware
04:33PM 44.8840 -93.3120 256° West 238 274 3,300 1,260 Climbing FlightAware
04:33PM 44.8820 -93.3170 241° Southwest 244 281 3,400 1,380 Climbing FlightAware
04:34PM 44.8750 -93.3260 222° Southwest 256 295 3,600 1,380 Climbing FlightAware
04:34PM 44.8710 -93.3300 215° Southwest 259 298 3,700 2,520 Climbing FlightAware
04:34PM 44.8600 -93.3370 204° Southwest 260 299 4,200 2,640 Climbing FlightAware
04:34PM 44.8510 -93.3400 193° South 264 304 4,500 2,580 Climbing FlightAware
04:34PM 44.8410 -93.3420 188° South 268 308 4,900 3,060 Climbing FlightAware
04:34PM 44.8170 -93.3420 180° South 268 308 5,900 3,060 Climbing FlightAware
04:35PM 44.7890 -93.3410 179° South 269 310 7,000 2,700 Climbing FlightAware
04:35PM 44.7640 -93.3400 178° South 274 315 7,800 2,160 Climbing FlightAware
04:35PM 44.7490 -93.3370 172° South 284 327 8,200 2,280 Climbing FlightAware
04:35PM 44.7380 -93.3320 162° South 287 330 8,600 3,000 Climbing FlightAware
04:36PM 44.7280 -93.3240 150° Southeast 288 331 9,000 2,520 Climbing FlightAware
04:36PM 44.7170 -93.3100 138° Southeast 297 342 9,400 1,800 Climbing FlightAware
04:36PM 44.7110 -93.2970 123° Southeast 306 352 9,600 1,620 Climbing FlightAware
04:37PM 44.6840 -93.2330 121° Southeast 326 375 10,600 1,740 Climbing FlightAware
04:37PM 44.6560 -93.1640 120° Southeast 345 397 11,700 1,380 Climbing FlightAware
04:38PM 44.6300 -93.1020 120° Southeast 367 422 12,200 1,380 Climbing FlightAware
04:38PM 44.5980 -93.0260 121° Southeast 377 434 13,300 1,620 Climbing FlightAware
04:39PM 44.5650 -92.9470 120° Southeast 395 455 14,200 1,500 Climbing FlightAware
04:39PM 44.5330 -92.8750 122° Southeast 407 468 15,100 1,740 Climbing FlightAware
04:40PM 44.4990 -92.7950 121° Southeast 414 476 16,200 1,800 Climbing FlightAware
04:41PM 44.4650 -92.7160 121° Southeast 421 484 17,200 1,680 Climbing FlightAware
04:41PM 44.4260 -92.6260 121° Southeast 428 493 18,300 1,680 Climbing FlightAware
04:42PM 44.3920 -92.5490 122° Southeast 434 499 19,200 1,800 Climbing FlightAware
04:42PM 44.3540 -92.4600 121° Southeast 433 498 20,400 1,800 Climbing FlightAware
04:43PM 44.3200 -92.3830 122° Southeast 438 504 21,300 1,380 Climbing FlightAware
04:44PM 44.2800 -92.2890 121° Southeast 447 514 22,100 1,140 Climbing FlightAware
04:44PM 44.2430 -92.2010 120° Southeast 457 526 22,700 1,200 Climbing FlightAware
04:45PM 44.2060 -92.1160 121° Southeast 461 531 23,500 1,320 Climbing FlightAware
04:45PM 44.1660 -92.0230 121° Southeast 465 535 24,300 1,200 Climbing FlightAware
04:46PM 44.1218 -91.9223 121° Southeast 471 542 25,000 1,080 Climbing FlightAware ADS-B
04:46PM 44.0890 -91.8460 121° Southeast 474 545 25,600 1,080 Climbing FlightAware
04:47PM 44.0480 -91.7520 121° Southeast 479 551 26,200 960 Climbing FlightAware
04:48PM 44.0070 -91.6590 121° Southeast 481 554 26,800 960 Climbing FlightAware
04:48PM 43.9640 -91.5610 121° Southeast 486 559 27,400 900 Climbing FlightAware
04:49PM 43.9260 -91.4770 122° Southeast 489 563 27,900 780 Climbing FlightAware
04:49PM 43.8750 -91.3900 129° Southeast 493 567 28,300 780 Climbing FlightAware
04:50PM 43.8180 -91.3070 134° Southeast 494 568 28,900 1,020 Climbing FlightAware
04:51PM 43.7640 -91.2310 135° Southeast 494 568 29,500 900 Climbing FlightAware
04:51PM 43.7050 -91.1500 135° Southeast 495 570 30,000 900 Climbing FlightAware
04:52PM 43.6500 -91.0730 135° Southeast 495 570 30,600 960 Climbing FlightAware
04:52PM 43.6000 -91.0020 134° Southeast 495 570 31,100 720 Climbing FlightAware
04:53PM 43.5370 -90.9130 134° Southeast 500 575 31,500 600 Climbing FlightAware
04:53PM 43.4780 -90.8320 135° Southeast 502 578 31,900 780 Climbing FlightAware
04:54PM 43.4220 -90.7540 135° Southeast 500 575 32,400 840 Climbing FlightAware
04:55PM 43.3610 -90.6690 135° Southeast 502 578 32,900 480 Climbing FlightAware
04:55PM 43.3090 -90.5970 135° Southeast 502 578 33,000 60 Climbing FlightAware
04:56PM 43.2530 -90.5200 135° Southeast 504 580 33,000  Level FlightAware
04:56PM 43.1940 -90.4390 135° Southeast 508 585 33,000  Level FlightAware
04:57PM 43.1330 -90.3550 135° Southeast 511 588 33,000  Level FlightAware
04:58PM 43.0780 -90.2800 135° Southeast 509 586 33,000 -120 Level FlightAware
04:58PM 43.0080 -90.1840 135° Southeast 511 588 32,900 -120 Descending FlightAware
04:59PM 42.9500 -90.1050 135° Southeast 511 588 32,900 60 Level FlightAware
04:59PM 42.8910 -90.0260 136° Southeast 510 587 33,000  Climbing FlightAware
05:00PM 42.8320 -89.9480 136° Southeast 507 583 32,900 -120 Descending FlightAware
05:00PM 42.7900 -89.9120 148° Southeast 499 574 32,900 120 Level FlightAware
05:01PM 42.7540 -89.8940 160° South 491 565 33,000 120 Climbing FlightAware
05:01PM 42.6820 -89.8750 169° South 484 557 33,000 -120 Level FlightAware
05:02PM 42.6000 -89.8570 171° South 484 557 32,900 -120 Descending FlightAware
05:02PM 42.5240 -89.8400 171° South 483 556 32,900  Level FlightAware
05:03PM 42.4530 -89.8240 171° South 482 555 32,900 60 Level FlightAware
05:03PM 42.3710 -89.8060 171° South 482 555 33,000 60 Climbing FlightAware
05:04PM 42.2950 -89.7890 171° South 483 556 33,000  Level FlightAware
05:05PM 42.2160 -89.7720 171° South 484 557 33,000  Level FlightAware
05:05PM 42.1360 -89.7540 171° South 485 558 33,000  Level FlightAware
05:06PM 42.0630 -89.7380 171° South 485 558 33,000  Level FlightAware
05:06PM 41.9970 -89.7240 171° South 486 559 33,000 -120 Level FlightAware
05:07PM 41.9080 -89.7040 171° South 485 558 32,900  Descending FlightAware
05:08PM 41.8200 -89.6850 171° South 485 558 33,000  Climbing FlightAware
05:08PM 41.7410 -89.6680 171° South 484 557 32,900 -120 Descending FlightAware
05:09PM 41.6700 -89.6530 171° South 482 555 32,900  Level FlightAware
05:09PM 41.5850 -89.6350 171° South 479 551 32,900 60 Level FlightAware
05:10PM 41.5070 -89.6180 171° South 477 549 33,000 60 Climbing FlightAware
05:11PM 41.4310 -89.6020 171° South 475 547 33,000 -120 Level FlightAware
05:11PM 41.3620 -89.5880 171° South 474 545 32,900  Descending FlightAware
05:12PM 41.2820 -89.5710 171° South 473 544 33,000  Climbing FlightAware
05:12PM 41.2020 -89.5540 171° South 473 544 32,900  Descending FlightAware
05:13PM 41.1290 -89.5400 172° South 469 540 33,000  Climbing FlightAware
05:14PM 41.0500 -89.5270 173° South 467 537 32,900  Descending FlightAware
05:14PM 40.9800 -89.5170 174° South 468 539 33,000 60 Climbing FlightAware
05:15PM 40.9120 -89.5060 173° South 469 540 33,000 -120 Level FlightAware
05:15PM 40.8540 -89.4990 175° South 462 532 32,900  Descending FlightAware
05:15PM 40.8050 -89.5080 188° South 445 512 33,000 60 Climbing FlightAware
05:16PM 40.7320 -89.5300 193° South 443 510 33,000 -120 Level FlightAware
05:17PM 40.6630 -89.5490 192° South 441 507 32,900  Descending FlightAware
05:17PM 40.5910 -89.5660 190° South 449 517 33,000  Climbing FlightAware
05:18PM 40.5030 -89.5650 180° South 467 537 32,900 -120 Descending FlightAware
05:19PM 40.4230 -89.5480 171° South 469 540 32,900 60 Level FlightAware
05:19PM 40.3530 -89.5320 170° South 468 539 33,000  Climbing FlightAware
05:20PM 40.2790 -89.5160 171° South 468 539 32,900 -120 Descending FlightAware
05:20PM 40.2310 -89.5050 170° South 465 535 32,900  Level FlightAware
05:21PM 40.1080 -89.4780 170° South 465 535 32,900  Level FlightAware
05:22PM 40.0430 -89.4630 170° South 465 535 32,900  Level FlightAware
05:22PM 39.9480 -89.4470 173° South 463 533 32,900  Level FlightAware
05:23PM 39.8720 -89.4250 167° South 473 544 32,900 60 Level FlightAware
05:24PM 39.7710 -89.3800 161° South 480 552 33,000  Climbing FlightAware
05:24PM 39.6750 -89.3300 158° South 481 554 32,900 -120 Descending FlightAware
05:25PM 39.6120 -89.2970 158° South 481 554 32,900  Level FlightAware
05:26PM 39.5480 -89.2640 158° South 481 554 32,900  Level FlightAware
05:26PM 39.4830 -89.2300 158° South 481 554 32,900  Level FlightAware
05:27PM 39.4200 -89.1970 158° South 481 554 32,900  Level FlightAware
05:27PM 39.3570 -89.1640 158° South 481 554 32,900  Level FlightAware
05:28PM 39.2890 -89.1280 158° South 481 554 32,900  Level FlightAware
05:29PM 39.1210 -89.0730 166° South 470 541 32,900  Level FlightAware
05:30PM 39.0440 -89.0370 160° South 469 540 32,900 60 Level FlightAware
05:30PM 38.9660 -89.0010 160° South 468 539 33,000  Climbing FlightAware
05:31PM 38.9030 -88.9720 160° South 468 539 32,900 -120 Descending FlightAware
05:31PM 38.8300 -88.9390 161° South 468 539 32,900 60 Level FlightAware
05:32PM 38.7560 -88.9050 160° South 468 539 33,000  Climbing FlightAware
05:32PM 38.6900 -88.8750 160° South 467 537 32,900  Descending FlightAware
05:33PM 38.6180 -88.8420 160° South 465 535 33,000  Climbing FlightAware
05:34PM 38.5440 -88.8090 161° South 464 534 32,900 -120 Descending FlightAware
05:34PM 38.4790 -88.7800 161° South 464 534 32,900  Level FlightAware
05:35PM 38.4050 -88.7460 160° South 463 533 32,900 60 Level FlightAware
05:35PM 38.3330 -88.7140 161° South 463 533 33,000  Climbing FlightAware
05:36PM 38.2600 -88.6810 160° South 463 533 32,900 -120 Descending FlightAware
05:37PM 38.1870 -88.6480 160° South 463 533 32,900  Level FlightAware
05:37PM 38.1140 -88.6160 161° South 463 533 32,900 60 Level FlightAware
05:38PM 38.0480 -88.5870 161° South 463 533 33,000  Climbing FlightAware
05:38PM 37.9770 -88.5550 160° South 462 532 32,900 -120 Descending FlightAware
05:39PM 37.9050 -88.5230 161° South 462 532 32,900  Level FlightAware
05:39PM 37.8400 -88.4940 161° South 462 532 32,900  Level FlightAware
05:40PM 37.7670 -88.4620 161° South 462 532 32,900  Level FlightAware
05:41PM 37.6900 -88.4280 161° South 460 529 32,900  Level FlightAware
05:41PM 37.6510 -88.4090 159° South 477 549 32,900  Level FlightAware
05:41PM 37.6280 -88.3890 145° Southeast 498 573 32,900 120 Level FlightAware
05:42PM 37.5690 -88.3210 138° Southeast 505 581 33,000  Climbing FlightAware
05:42PM 37.5030 -88.2460 138° Southeast 501 577 32,900 -120 Descending FlightAware
05:43PM 37.4410 -88.1800 140° Southeast 499 574 32,900  Level FlightAware
05:43PM 37.3830 -88.1170 139° Southeast 502 578 32,900  Level FlightAware
05:44PM 37.3220 -88.0480 138° Southeast 504 580 32,900  Level FlightAware
05:45PM 37.2610 -87.9770 137° Southeast 503 579 32,900  Level FlightAware
05:45PM 37.2090 -87.9170 137° Southeast 503 579 32,900 60 Level FlightAware
05:46PM 37.1430 -87.8410 137° Southeast 503 579 33,000  Climbing FlightAware
05:46PM 37.0820 -87.7720 138° Southeast 504 580 32,900 -120 Descending FlightAware
05:47PM 37.0200 -87.7030 138° Southeast 497 572 32,900  Level FlightAware
05:48PM 36.9470 -87.6340 143° Southeast 496 571 32,900  Level FlightAware
05:48PM 36.8830 -87.5730 143° Southeast 498 573 32,900 60 Level FlightAware
05:49PM 36.8140 -87.5070 143° Southeast 500 575 33,000  Climbing FlightAware
05:49PM 36.7550 -87.4500 142° Southeast 501 577 32,900 -120 Descending FlightAware
05:50PM 36.7000 -87.3950 141° Southeast 502 578 32,900  Level FlightAware
05:50PM 36.6390 -87.3360 142° Southeast 504 580 32,900  Level FlightAware
05:51PM 36.5740 -87.2720 142° Southeast 505 581 32,900  Level FlightAware
05:52PM 36.5070 -87.2070 142° Southeast 507 583 32,900 60 Level FlightAware
05:52PM 36.4480 -87.1500 142° Southeast 506 582 33,000  Climbing FlightAware
05:53PM 36.3740 -87.0790 142° Southeast 507 583 32,900 -120 Descending FlightAware
05:53PM 36.3060 -87.0130 142° Southeast 507 583 32,900  Level FlightAware
05:54PM 36.2470 -86.9560 142° Southeast 508 585 32,900  Level FlightAware
05:55PM 36.1770 -86.8890 142° Southeast 508 585 32,900  Level FlightAware
05:55PM 36.1160 -86.8300 142° Southeast 508 585 32,900  Level FlightAware
05:56PM 36.0704 -86.7866 142° Southeast 507 583 32,900 60 Level FlightAware ADS-B
05:56PM 36.0135 -86.7324 142° Southeast 506 582 33,000 60 Climbing FlightAware ADS-B
05:57PM 35.9567 -86.6785 142° Southeast 505 581 33,000 -120 Level FlightAware ADS-B
05:57PM 35.8995 -86.6245 143° Southeast 504 580 32,900 -120 Descending FlightAware ADS-B
05:58PM 35.7910 -86.5230 143° Southeast 501 577 32,900 60 Level FlightAware
05:58PM 35.7692 -86.5015 141° Southeast 503 579 33,000  Climbing FlightAware ADS-B
05:59PM 35.6993 -86.4355 143° Southeast 499 574 32,900 -120 Descending FlightAware ADS-B
05:59PM 35.6441 -86.3837 143° Southeast 499 574 32,900  Level FlightAware ADS-B
06:00PM 35.5860 -86.3292 143° Southeast 497 572 32,900  Level FlightAware ADS-B
06:00PM 35.5273 -86.2740 143° Southeast 496 571 32,900 60 Level FlightAware ADS-B
06:01PM 35.4703 -86.2206 143° Southeast 495 570 33,000  Climbing FlightAware ADS-B
06:02PM 35.4151 -86.1690 143° Southeast 495 570 32,900  Descending FlightAware ADS-B
06:02PM 35.3578 -86.1154 143° Southeast 495 570 33,000  Climbing FlightAware ADS-B
06:03PM 35.3000 -86.0613 143° Southeast 495 570 32,900 -120 Descending FlightAware ADS-B
06:03PM 35.2406 -86.0059 143° Southeast 497 572 32,900  Level FlightAware ADS-B
06:04PM 35.1853 -85.9543 143° Southeast 497 572 32,900  Level FlightAware ADS-B
06:04PM 35.1297 -85.9027 143° Southeast 497 572 32,900  Level FlightAware ADS-B
06:05PM 35.0705 -85.8492 144° Southeast 494 568 32,900 -300 Level FlightAware ADS-B
06:05PM 35.0135 -85.8022 146° Southeast 491 565 32,600 -1,140 Descending FlightAware ADS-B
06:06PM 34.9552 -85.7560 147° Southeast 495 570 31,800 -1,260 Descending FlightAware ADS-B
06:06PM 34.8945 -85.7081 147° Southeast 495 570 31,300 -1,200 Descending FlightAware ADS-B
06:07PM 34.8350 -85.6613 147° Southeast 497 572 30,600 -1,500 Descending FlightAware ADS-B
06:07PM 34.7769 -85.6155 147° Southeast 497 572 29,800 -2,400 Descending FlightAware ADS-B
06:08PM 34.7102 -85.5631 147° Southeast 500 575 28,100 -2,820 Descending FlightAware ADS-B
06:08PM 34.6519 -85.5170 147° Southeast 492 566 26,800 -2,460 Descending FlightAware ADS-B
06:09PM 34.5919 -85.4696 147° Southeast 483 556 25,600 -2,340 Descending FlightAware ADS-B
06:09PM 34.5350 -85.4249 147° Southeast 473 544 24,400 -2,400 Descending FlightAware ADS-B
06:10PM 34.4800 -85.3818 147° Southeast 465 535 23,200 -2,340 Descending FlightAware ADS-B
06:10PM 34.4217 -85.3362 147° Southeast 456 525 22,000 -2,340 Descending FlightAware ADS-B
06:11PM 34.3689 -85.2949 147° Southeast 448 516 20,800 -2,400 Descending FlightAware ADS-B
06:11PM 34.3159 -85.2536 147° Southeast 440 506 19,600 -2,280 Descending FlightAware ADS-B
06:12PM 34.2571 -85.2076 147° Southeast 432 497 18,300 -420 Descending FlightAware ADS-B
06:13PM 34.1810 -85.1480 147° Southeast 436 502 19,000 420 Climbing FlightAware
06:14PM 34.1280 -85.1060 147° Southeast 436 502 19,000  Level FlightAware
06:14PM 34.0790 -85.0680 147° Southeast 436 502 19,000  Level FlightAware
06:15PM 34.0270 -85.0270 147° Southeast 436 502 19,000  Level FlightAware
06:15PM 33.9740 -84.9850 147° Southeast 436 502 19,000 -5,040 Level FlightAware
06:16PM 33.9130 -84.8150 113° Southeast 396 456 12,000 -5,460 Descending FlightAware
06:17PM 33.8720 -84.7660 135° Southeast 398 458 12,000  Level FlightAware
06:17PM 33.8260 -84.7100 135° Southeast 398 458 12,000  Level FlightAware
06:18PM 33.7810 -84.6550 135° Southeast 381 438 12,000  Level FlightAware
06:18PM 33.7390 -84.6010 133° Southeast 348 400 12,000  Level FlightAware
06:19PM 33.7280 -84.5760 118° Southeast 345 397 12,000  Level FlightAware
06:19PM 33.7210 -84.5490 107° East 347 399 12,000 -1,380 Level FlightAware
06:19PM 33.7190 -84.4900 92° East 348 400 11,000 -1,980 Descending FlightAware
06:20PM 33.7200 -84.4120 89° East 343 395 9,700 -1,620 Descending FlightAware
06:21PM 33.7210 -84.3470 89° East 332 382 9,000 -1,200 Descending FlightAware
06:21PM 33.7210 -84.3120 90° East 328 377 8,600 -1,560 Descending FlightAware
06:21PM 33.7210 -84.2870 90° East 324 373 8,100 -1,680 Descending FlightAware
06:22PM 33.7336 -84.2186 90° East 319 367 6,800 -1,620 Descending Atlanta Center
06:23PM 33.7333 -84.1500 90° East 297 342 5,800 -1,140 Descending Atlanta TRACON
06:24PM 33.7333 -84.0500 90° East 287 330 5,000 -420 Descending Atlanta TRACON
06:25PM 33.7000 -83.9833 121° Southeast 239 275 5,000  Level Atlanta TRACON
06:26PM 33.6500 -84.0167 209° Southwest 191 220 5,000 -480 Level Atlanta TRACON
06:31PM 33.6390 -84.3050 209° Southwest 2,500 -600 Descending FlightAware
06:32PM 33.6500 -84.3667 209° Southwest 140 161 1,600 -840 Descending Atlanta TRACON